Flight Track Log - Related Links

Times and Time Zones

All times are in EDT time to prevent confusion due to time zone crossing. See the EJA831 flight status page for this flight to view local times or setup timezone preferences in your user account.

Time Position Orientation Groundspeed Altitude Reporting Facility
EDT Latitude Longitude Course Direction KTS MPH feet Rate Location/Type
Fri 07:31:14 PM 34.0886 -117.8067 166° South 151 174 28,000  Level Los Angeles Center
Fri 07:31:52 PM 34.0667 -117.8000 166° South 194 223 4,300 -6,774 Descending Southern California TRACON
Fri 07:34:20 PM 34.0739 -117.7508 80° East 215 247 7,000 1,371 Climbing Los Angeles Center
Fri 07:35:22 PM 34.1178 -117.8186 308° West 248 285 9,100 2,468 Climbing Los Angeles Center
Fri 07:36:24 PM 34.1761 -117.9178 305° West 303 349 12,100 2,688 Climbing Los Angeles Center
Fri 07:37:27 PM 34.2297 -118.0075 306° West 327 376 14,700 2,640 Climbing Los Angeles Center
Fri 07:38:29 PM 34.2803 -118.0989 304° West 329 379 17,600 2,806 Climbing Los Angeles Center
Fri 07:39:31 PM 34.3197 -118.1981 296° West 329 379 20,500 2,613 Climbing Los Angeles Center
Fri 07:40:33 PM 34.3606 -118.2989 296° West 332 382 23,000 2,613 Climbing Los Angeles Center
Fri 07:41:35 PM 34.4206 -118.4144 302° West 341 392 25,900 2,371 Climbing Los Angeles Center
Fri 07:42:37 PM 34.4886 -118.5006 314° West 355 409 27,900 1,016 Climbing Los Angeles Center
Fri 07:43:39 PM 34.5628 -118.5931 314° West 382 440 28,000 48 Climbing Los Angeles Center
Fri 07:44:41 PM 34.6411 -118.6931 314° West 407 468 28,000  Level Los Angeles Center
Fri 07:45:44 PM 34.7208 -118.7931 314° West 413 475 28,000  Level Los Angeles Center
Fri 07:46:46 PM 34.8186 -118.9167 314° West 421 484 28,000  Level Los Angeles Center
Fri 07:47:48 PM 34.8967 -119.0136 314° West 419 482 28,000  Level Los Angeles Center
Fri 07:48:50 PM 34.9781 -119.1131 315° West 414 476 28,000  Level Los Angeles Center
Fri 07:49:52 PM 35.0578 -119.2167 313° West 416 479 28,000  Level Los Angeles Center
Fri 07:50:54 PM 35.1381 -119.3186 314° West 417 480 28,000  Level Los Angeles Center
Fri 07:51:56 PM 35.2200 -119.4558 306° West 421 484 28,000  Level Los Angeles Center
Fri 07:52:58 PM 35.2814 -119.5761 302° West 418 481 28,000  Level Los Angeles Center
Fri 07:54:01 PM 35.3414 -119.6950 302° West 413 475 28,000  Level Los Angeles Center
Fri 07:55:03 PM 35.4014 -119.8178 301° West 419 482 28,000  Level Los Angeles Center
Fri 07:56:05 PM 35.4603 -119.9361 301° West 411 473 28,000  Level Los Angeles Center
Fri 07:57:07 PM 35.5317 -120.0811 301° West 414 476 28,000  Level Los Angeles Center
Fri 07:58:09 PM 35.5858 -120.1908 301° West 415 478 28,000  Level Los Angeles Center
Fri 07:59:11 PM 35.6450 -120.3114 301° West 415 478 28,000  Level Los Angeles Center
Fri 07:59:41 PM 35.6842 -120.3931 301° West 417 480 28,000  Level Oakland Center
Fri 08:00:43 PM 35.7433 -120.5142 301° West 417 480 28,000  Level Oakland Center
Fri 08:01:45 PM 35.8014 -120.6361 300° West 417 480 28,000  Level Oakland Center
Fri 08:02:46 PM 35.8606 -120.7567 301° West 416 479 28,000  Level Oakland Center
Fri 08:03:48 PM 35.9189 -120.8781 301° West 415 478 28,000 -537 Level Oakland Center
Fri 08:04:49 PM 36.0078 -120.9669 321° Northwest 410 472 26,900 -1,268 Descending Oakland Center
Fri 08:05:51 PM 36.1122 -121.0733 321° Northwest 409 471 25,400 -1,403 Descending Oakland Center
Fri 08:06:53 PM 36.1969 -121.1586 321° Northwest 396 456 24,000 -1,317 Descending Oakland Center
Fri 08:07:54 PM 36.2817 -121.2417 322° Northwest 391 450 22,700 -1,220 Descending Oakland Center
Fri 08:08:56 PM 36.3633 -121.3267 320° Northwest 387 445 21,500 -1,512 Descending Oakland Center
Fri 08:09:57 PM 36.4444 -121.4083 321° Northwest 380 437 19,600 -1,854 Descending Oakland Center
Fri 08:10:59 PM 36.5336 -121.4661 332° Northwest 366 421 17,700 -1,887 Descending Oakland Center
Fri 08:12:01 PM 36.6381 -121.4847 352° North 375 432 15,700 -2,098 Descending Oakland Center
Fri 08:13:02 PM 36.7561 -121.5089 351° North 360 414 13,400 -1,951 Descending Oakland Center
Fri 08:14:04 PM 36.8350 -121.5264 350° North 351 404 11,700 -2,000 Descending Oakland Center
Fri 08:15:05 PM 36.9414 -121.5489 350° North 326 375 9,300 -1,805 Descending Oakland Center
Fri 08:16:07 PM 37.0203 -121.5642 351° North 298 343 8,000 -1,366 Descending Oakland Center
Fri 08:17:08 PM 37.0869 -121.5864 345° North 285 328 6,500 -1,463 Descending Oakland Center
Fri 08:18:10 PM 37.1442 -121.6661 312° West 278 320 5,000 -1,016 Descending Oakland Center
Fri 08:19:12 PM 37.1944 -121.7336 313° West 273 314 4,400 -1,073 Descending Oakland Center
Fri 08:20:13 PM 37.2442 -121.8003 313° West 267 307 2,800 -1,317 Descending Oakland Center
Fri 08:21:15 PM 37.2892 -121.8553 316° Northwest 242 278 1,700 -1,073 Descending Oakland Center
Fri 08:22:16 PM 37.3328 -121.9014 320° Northwest 189 217 600 -780 Descending Oakland Center
Fri 08:23:18 PM 37.3556 -121.9239 322° Northwest 135 155 100 -484 Descending Oakland Center
Fri 08:25:00 PM 37.3500 -121.9167 North  Level FlightAware Approximate

Login

Don't have an account? Register now (free) for customized features, flight alerts, and more!